Time;durP1;ratioP1;P1;durP2;ratioP2;P2;SDS_P1;SDS_P2;PMS_P1;PMS_P2;Temp;Humidity;BMP_temperature;BMP_pressure;BME280_temperature;BME280_humidity;BME280_pressure;Samples;Min_cycle;Max_cycle;Signal;HPM_P1;HPM_P2
2021/03/30 00:07:20;;;;;;;7.10;3.83;;;19.70;34.40;;;;;;5044692;28;20252;-41
2021/03/30 00:09:46;;;;;;;4.33;3.13;;;19.70;34.80;;;;;;5039031;28;20602;-42
2021/03/30 00:12:12;;;;;;;7.87;3.93;;;19.60;34.80;;;;;;5046675;28;20228;-41
2021/03/30 00:14:37;;;;;;;6.37;3.83;;;19.60;34.70;;;;;;5037157;28;20279;-41
2021/03/30 00:17:03;;;;;;;4.20;3.80;;;19.60;35.00;;;;;;5042255;28;20203;-43
2021/03/30 00:19:28;;;;;;;5.20;3.47;;;19.50;35.00;;;;;;5032924;28;20207;-41
2021/03/30 00:21:54;;;;;;;5.10;3.57;;;19.50;35.40;;;;;;5040206;28;20194;-41
2021/03/30 00:24:20;;;;;;;8.63;4.07;;;19.50;35.40;;;;;;5037799;28;20221;-41
2021/03/30 00:26:45;;;;;;;4.60;3.63;;;19.50;35.30;;;;;;5035347;28;20579;-41
2021/03/30 00:29:11;;;;;;;6.10;4.07;;;19.60;35.40;;;;;;5037392;28;20235;-41
2021/03/30 00:31:36;;;;;;;5.53;3.93;;;19.60;35.40;;;;;;5042701;28;20196;-41
2021/03/30 00:34:02;;;;;;;5.37;3.77;;;19.60;34.90;;;;;;5048680;28;20258;-41
2021/03/30 00:36:27;;;;;;;4.80;4.00;;;19.60;35.00;;;;;;5046922;28;20198;-41
2021/03/30 00:38:53;;;;;;;5.63;3.73;;;19.60;35.10;;;;;;5046489;28;20279;-41
2021/03/30 00:41:19;;;;;;;4.90;3.93;;;19.60;35.10;;;;;;5042449;28;20246;-42
2021/03/30 00:43:44;;;;;;;7.60;4.70;;;19.60;34.90;;;;;;5047168;28;20268;-41
2021/03/30 00:46:16;;;;;;;5.77;3.80;;;19.50;35.00;;;;;;5051757;28;20192;-41
2021/03/30 00:48:45;;;;;;;4.23;3.87;;;19.50;35.30;;;;;;5039602;28;20194;-42
2021/03/30 00:51:10;;;;;;;4.30;3.60;;;19.40;34.90;;;;;;5039500;28;20439;-42
2021/03/30 00:53:36;;;;;;;4.20;3.80;;;19.30;35.00;;;;;;5038972;28;20827;-41
2021/03/30 00:56:02;;;;;;;5.30;3.97;;;19.30;34.90;;;;;;5048881;28;20228;-42
2021/03/30 00:58:28;;;;;;;6.50;3.90;;;19.30;35.00;;;;;;5048213;28;20188;-41
2021/03/30 01:00:54;;;;;;;4.70;3.67;;;19.20;35.40;;;;;;5032450;28;20201;-41
2021/03/30 01:03:20;;;;;;;4.57;4.10;;;19.10;35.40;;;;;;5041037;28;20278;-41
2021/03/30 01:05:46;;;;;;;6.50;4.10;;;19.10;35.40;;;;;;5040733;28;20842;-41
2021/03/30 01:08:29;;;;;;;5.60;4.10;;;18.90;35.40;;;;;;5031860;28;20229;-41
2021/03/30 01:11:05;;;;;;;4.80;3.40;;;19.00;35.80;;;;;;5042756;28;20534;-41
2021/03/30 01:13:45;;;;;;;4.40;3.70;;;19.00;35.60;;;;;;5035222;28;20519;-41
2021/03/30 01:16:26;;;;;;;4.40;4.00;;;19.00;35.80;;;;;;5038205;28;20450;-41
2021/03/30 01:19:25;;;;;;;7.43;4.70;;;19.10;35.40;;;;;;5042965;28;20508;-41
2021/03/30 01:21:59;;;;;;;6.63;4.77;;;19.00;35.40;;;;;;5019586;28;20447;-41
2021/03/30 01:24:31;;;;;;;5.17;4.10;;;19.00;35.70;;;;;;5035699;28;20549;-41
2021/03/30 01:27:02;;;;;;;5.63;4.43;;;19.00;35.60;;;;;;5039453;28;20450;-41
2021/03/30 01:29:38;;;;;;;7.33;3.67;;;19.00;35.50;;;;;;5039615;28;20439;-41
2021/03/30 01:32:09;;;;;;;9.13;4.60;;;19.00;35.60;;;;;;5040362;28;20501;-41
2021/03/30 01:34:36;;;;;;;6.47;3.70;;;19.00;35.60;;;;;;5039062;28;20958;-41
2021/03/30 01:37:02;;;;;;;4.67;3.70;;;19.00;35.60;;;;;;5032443;28;20443;-41
2021/03/30 01:39:30;;;;;;;4.17;3.77;;;19.00;35.50;;;;;;5041073;28;20485;-41
2021/03/30 01:41:56;;;;;;;4.80;4.27;;;18.90;35.30;;;;;;5035393;28;20440;-43
2021/03/30 01:44:24;;;;;;;5.03;4.27;;;18.80;35.50;;;;;;5045246;28;20499;-41
2021/03/30 01:46:52;;;;;;;6.03;4.50;;;18.80;35.60;;;;;;5030889;28;20490;-42
2021/03/30 01:49:20;;;;;;;4.30;3.90;;;18.80;36.00;;;;;;5045434;28;20443;-42
2021/03/30 01:51:46;;;;;;;6.23;4.17;;;18.70;35.80;;;;;;5029983;28;20806;-41
2021/03/30 01:54:13;;;;;;;6.50;5.33;;;18.80;36.00;;;;;;5046513;28;20581;-41
2021/03/30 01:56:41;;;;;;;6.13;4.13;;;18.80;35.80;;;;;;5037542;28;20546;-41
2021/03/30 01:59:08;;;;;;;4.40;3.40;;;18.70;35.90;;;;;;5031523;28;20448;-41
2021/03/30 02:01:35;;;;;;;9.33;4.40;;;18.60;35.90;;;;;;5039578;28;20494;-41
2021/03/30 02:04:04;;;;;;;5.80;4.13;;;18.60;36.00;;;;;;5027350;28;20487;-41
2021/03/30 02:06:33;;;;;;;7.63;4.17;;;18.60;36.10;;;;;;5037298;28;20864;-41
2021/03/30 02:09:02;;;;;;;6.57;3.83;;;18.70;36.10;;;;;;5035670;28;20474;-41
2021/03/30 02:11:36;;;;;;;7.40;4.33;;;18.70;36.00;;;;;;5033783;28;20470;-41
2021/03/30 02:14:02;;;;;;;4.70;3.13;;;18.50;35.50;;;;;;5037727;28;20449;-42
2021/03/30 02:16:54;;;;;;;3.90;3.40;;;18.30;36.40;;;;;;5037108;28;20439;-41
2021/03/30 02:19:27;;;;;;;6.63;3.97;;;18.20;36.80;;;;;;5037991;28;20205;-41
2021/03/30 02:21:58;;;;;;;4.43;3.60;;;18.30;36.90;;;;;;5034606;28;20451;-41
2021/03/30 02:24:25;;;;;;;4.03;3.63;;;18.30;36.70;;;;;;5037515;28;20491;-41
2021/03/30 02:26:52;;;;;;;3.87;3.33;;;18.40;36.40;;;;;;5035160;28;20483;-41
2021/03/30 02:29:24;;;;;;;4.23;3.73;;;18.40;36.60;;;;;;5032400;28;20443;-41
2021/03/30 02:31:52;;;;;;;7.90;4.10;;;18.40;36.40;;;;;;5030222;28;20447;-41
2021/03/30 02:34:20;;;;;;;6.83;4.10;;;18.40;36.60;;;;;;5038305;28;20837;-41
2021/03/30 02:36:47;;;;;;;7.27;4.67;;;18.30;36.40;;;;;;5034140;28;20939;-41
2021/03/30 02:39:14;;;;;;;6.97;4.60;;;18.30;36.80;;;;;;5036383;28;20931;-41
2021/03/30 02:41:42;;;;;;;4.63;4.20;;;18.30;36.60;;;;;;5042910;28;20950;-41
2021/03/30 02:44:10;;;;;;;7.00;4.80;;;18.20;37.00;;;;;;5037758;28;20495;-41
2021/03/30 02:46:39;;;;;;;6.50;4.20;;;18.20;36.70;;;;;;5040479;28;20444;-41
2021/03/30 02:49:04;;;;;;;5.67;3.93;;;18.20;37.40;;;;;;5035382;28;20450;-41
2021/03/30 02:51:32;;;;;;;5.20;4.07;;;18.20;37.10;;;;;;5046010;28;20439;-41
2021/03/30 02:53:59;;;;;;;5.10;3.70;;;18.20;37.10;;;;;;5040310;28;20219;-41
2021/03/30 02:56:25;;;;;;;4.90;3.80;;;18.10;36.90;;;;;;5033649;28;20467;-41
2021/03/30 02:58:52;;;;;;;5.93;4.10;;;18.10;36.90;;;;;;5037235;28;20489;-41
2021/03/30 03:01:20;;;;;;;4.63;3.63;;;18.00;37.00;;;;;;5049053;28;20470;-42
2021/03/30 03:03:46;;;;;;;5.63;4.27;;;18.00;37.10;;;;;;5046732;28;20517;-41
2021/03/30 03:06:14;;;;;;;5.63;3.83;;;18.00;37.20;;;;;;5049658;28;20426;-41
2021/03/30 03:08:41;;;;;;;4.63;4.13;;;17.90;37.00;;;;;;5035478;28;20477;-41
2021/03/30 03:11:07;;;;;;;4.47;3.97;;;17.80;37.30;;;;;;5040906;28;20474;-42
2021/03/30 03:13:34;;;;;;;6.13;3.57;;;17.80;37.50;;;;;;5036077;28;20440;-41
2021/03/30 03:16:00;;;;;;;5.30;4.00;;;18.00;37.40;;;;;;5032750;28;20440;-41
2021/03/30 03:18:26;;;;;;;6.70;4.07;;;17.90;37.40;;;;;;5035333;28;20455;-41
2021/03/30 03:20:52;;;;;;;5.93;4.80;;;17.90;37.00;;;;;;5035820;28;20190;-41
2021/03/30 03:23:18;;;;;;;7.67;4.93;;;17.60;37.60;;;;;;5044223;28;20467;-41
2021/03/30 03:25:45;;;;;;;5.20;4.70;;;17.70;37.60;;;;;;5041018;28;20443;-41
2021/03/30 03:28:12;;;;;;;5.40;4.30;;;17.70;37.60;;;;;;5045236;28;20546;-41
2021/03/30 03:30:39;;;;;;;5.43;3.80;;;17.40;37.50;;;;;;5033634;28;21202;-41
2021/03/30 03:33:10;;;;;;;6.03;4.50;;;17.20;37.90;;;;;;5037758;28;20817;-42
2021/03/30 03:35:36;;;;;;;4.10;3.80;;;17.10;38.30;;;;;;5043196;28;20470;-40
2021/03/30 03:38:02;;;;;;;4.43;3.60;;;17.00;38.20;;;;;;5044071;28;20440;-41
2021/03/30 03:40:28;;;;;;;4.30;3.90;;;16.90;38.40;;;;;;5035679;28;20296;-41
2021/03/30 03:42:54;;;;;;;5.63;3.90;;;17.00;38.90;;;;;;5053667;28;20419;-41
2021/03/30 03:45:20;;;;;;;8.00;3.70;;;17.00;38.80;;;;;;5038576;28;20506;-41
2021/03/30 03:47:46;;;;;;;5.93;3.67;;;16.90;39.00;;;;;;5046627;28;20946;-41
2021/03/30 03:50:12;;;;;;;8.20;4.63;;;17.00;39.00;;;;;;5041504;28;20186;-41
2021/03/30 03:52:43;;;;;;;6.13;4.43;;;17.20;38.70;;;;;;5039960;28;20231;-41
2021/03/30 03:55:11;;;;;;;7.10;3.90;;;16.80;38.60;;;;;;5032819;28;20536;-41
2021/03/30 03:57:51;;;;;;;6.60;4.23;;;16.90;38.70;;;;;;5044205;28;20447;-41
2021/03/30 04:00:19;;;;;;;3.90;3.50;;;17.00;38.60;;;;;;5039990;28;20465;-41
2021/03/30 04:02:58;;;;;;;5.07;3.73;;;17.00;38.60;;;;;;5048497;28;20450;-41
2021/03/30 04:05:34;;;;;;;7.67;4.80;;;17.00;38.50;;;;;;5047058;28;20463;-41
2021/03/30 04:08:05;;;;;;;4.50;3.80;;;17.10;38.00;;;;;;5034028;28;20917;-41
2021/03/30 04:10:33;;;;;;;5.37;3.70;;;16.90;38.30;;;;;;5044336;28;20481;-41
2021/03/30 04:12:59;;;;;;;6.00;4.00;;;16.90;38.50;;;;;;5036924;28;20443;-41
2021/03/30 04:15:25;;;;;;;5.43;3.80;;;16.80;39.00;;;;;;5046663;28;20572;-41
2021/03/30 04:17:52;;;;;;;4.30;3.33;;;16.80;38.60;;;;;;5043972;28;20444;-41
2021/03/30 04:20:19;;;;;;;7.00;4.13;;;16.90;39.00;;;;;;5040535;28;20918;-41
2021/03/30 04:22:57;;;;;;;5.33;4.00;;;17.00;38.20;;;;;;5040694;28;20788;-41
2021/03/30 04:25:23;;;;;;;6.80;3.83;;;16.90;38.70;;;;;;5036089;28;20832;-41
2021/03/30 04:27:49;;;;;;;5.13;3.83;;;16.70;38.30;;;;;;5041776;28;20450;-41
2021/03/30 04:30:15;;;;;;;4.77;3.40;;;16.80;39.10;;;;;;5041243;28;20545;-42
2021/03/30 04:32:40;;;;;;;4.93;3.63;;;16.50;38.80;;;;;;5034889;28;20197;-41
2021/03/30 04:35:06;;;;;;;5.30;3.97;;;16.40;39.50;;;;;;5037279;28;20439;-41
2021/03/30 04:37:32;;;;;;;4.37;3.47;;;16.30;39.50;;;;;;5047224;28;20207;-41
2021/03/30 04:39:58;;;;;;;5.47;4.50;;;16.50;39.20;;;;;;5036853;28;20444;-41
2021/03/30 04:42:24;;;;;;;3.87;3.47;;;16.70;38.90;;;;;;5038440;28;20197;-41
2021/03/30 04:44:49;;;;;;;6.70;3.70;;;16.50;39.10;;;;;;5033847;28;20225;-41
2021/03/30 04:47:15;;;;;;;8.80;3.77;;;16.60;39.20;;;;;;5042190;28;20197;-41
2021/03/30 04:49:41;;;;;;;6.47;3.67;;;16.60;39.00;;;;;;5042550;28;20204;-41
2021/03/30 04:52:07;;;;;;;7.10;3.90;;;16.70;38.70;;;;;;5042864;28;20562;-41
2021/03/30 04:54:32;;;;;;;5.30;3.57;;;16.80;38.60;;;;;;5032644;28;20243;-41
2021/03/30 04:56:58;;;;;;;6.83;4.60;;;16.80;38.50;;;;;;5036683;28;20266;-42
2021/03/30 04:59:24;;;;;;;7.10;4.37;;;16.50;37.60;;;;;;5032561;28;20221;-43
2021/03/30 05:01:49;;;;;;;4.67;3.77;;;16.00;38.30;;;;;;5045491;28;20598;-42
2021/03/30 05:04:17;;;;;;;5.20;3.67;;;15.40;39.10;;;;;;5042157;28;20275;-43
2021/03/30 05:06:42;;;;;;;7.77;3.80;;;14.80;40.30;;;;;;5037373;28;20223;-43
2021/03/30 05:09:08;;;;;;;7.60;4.10;;;14.40;41.10;;;;;;5041847;28;20871;-42
2021/03/30 05:11:33;;;;;;;9.63;4.37;;;14.10;41.80;;;;;;5046327;28;20656;-42
2021/03/30 05:14:00;;;;;;;8.20;4.50;;;13.50;43.00;;;;;;5033776;28;20232;-41
2021/03/30 05:16:25;;;;;;;6.17;4.57;;;13.30;43.60;;;;;;5037764;28;20196;-41
2021/03/30 05:18:51;;;;;;;4.40;4.00;;;13.40;44.30;;;;;;5038656;28;20442;-41
2021/03/30 05:21:18;;;;;;;4.90;4.10;;;13.50;44.50;;;;;;5034816;28;20197;-41
2021/03/30 05:23:43;;;;;;;5.90;4.20;;;13.70;44.20;;;;;;5045010;28;20243;-41
2021/03/30 05:26:09;;;;;;;7.13;3.93;;;13.90;43.70;;;;;;5039040;28;20432;-41
2021/03/30 05:28:35;;;;;;;7.33;4.20;;;14.00;43.50;;;;;;5038627;28;20227;-41
2021/03/30 05:31:00;;;;;;;5.87;3.97;;;14.10;44.40;;;;;;5035295;28;20272;-41
2021/03/30 05:33:26;;;;;;;7.70;4.70;;;14.50;42.70;;;;;;5038669;28;20647;-41
2021/03/30 05:35:51;;;;;;;6.40;4.10;;;15.00;41.70;;;;;;5033091;28;20195;-42
2021/03/30 05:38:17;;;;;;;5.37;4.87;;;15.40;40.40;;;;;;5035612;28;20192;-41
2021/03/30 05:40:43;;;;;;;7.97;3.90;;;15.70;39.40;;;;;;5042030;28;20189;-41
2021/03/30 05:43:10;;;;;;;5.53;3.70;;;15.80;38.90;;;;;;5042884;28;20200;-41
2021/03/30 05:45:36;;;;;;;4.13;3.73;;;16.00;38.50;;;;;;5040041;28;20197;-41
2021/03/30 05:48:01;;;;;;;4.70;3.97;;;16.20;38.30;;;;;;5045167;28;20439;-41
2021/03/30 05:50:28;;;;;;;11.90;4.37;;;16.30;38.00;;;;;;5050031;28;20284;-42
2021/03/30 05:53:05;;;;;;;5.60;4.80;;;16.50;37.70;;;;;;5034108;28;20280;-42
2021/03/30 05:55:33;;;;;;;7.10;4.43;;;16.40;37.60;;;;;;5038989;28;20800;-41
2021/03/30 05:58:00;;;;;;;4.77;4.37;;;16.30;37.90;;;;;;5034311;28;20447;-41
2021/03/30 06:00:29;;;;;;;4.90;4.03;;;16.40;37.80;;;;;;5031241;28;20443;-41
2021/03/30 06:03:01;;;;;;;5.03;4.40;;;16.60;37.50;;;;;;5042381;28;20875;-42
2021/03/30 06:05:27;;;;;;;9.73;4.90;;;16.70;37.30;;;;;;5038518;28;20953;-43
2021/03/30 06:07:53;;;;;;;5.17;4.40;;;16.60;37.50;;;;;;5039178;28;20751;-41
2021/03/30 06:10:24;;;;;;;5.10;4.00;;;16.60;37.40;;;;;;5042414;28;20826;-41
2021/03/30 06:12:49;;;;;;;5.27;4.60;;;16.50;37.70;;;;;;5035756;28;20431;-42
2021/03/30 06:15:16;;;;;;;5.30;3.90;;;16.50;37.80;;;;;;5041190;28;20439;-42
2021/03/30 06:17:46;;;;;;;5.50;4.43;;;16.60;37.90;;;;;;5050382;28;20554;-42
2021/03/30 06:20:31;;;;;;;6.60;4.17;;;16.60;37.60;;;;;;5045125;28;20485;-41
2021/03/30 06:23:05;;;;;;;6.40;4.40;;;16.80;37.60;;;;;;5050733;28;20442;-42
2021/03/30 06:25:41;;;;;;;5.03;4.33;;;17.00;37.30;;;;;;5049470;28;20946;-41
2021/03/30 06:28:21;;;;;;;5.20;4.23;;;17.10;37.20;;;;;;5050583;28;20442;-42
2021/03/30 06:31:13;;;;;;;8.17;4.43;;;16.90;37.40;;;;;;5049226;28;20938;-42
2021/03/30 06:33:55;;;;;;;6.30;3.80;;;17.00;37.60;;;;;;5047751;28;20459;-42
2021/03/30 06:36:26;;;;;;;5.23;4.17;;;17.10;37.30;;;;;;5049995;28;20427;-42
2021/03/30 06:39:03;;;;;;;5.57;3.90;;;17.40;37.10;;;;;;5046211;28;20489;-42
2021/03/30 06:41:57;;;;;;;5.03;3.93;;;17.20;37.50;;;;;;5036982;28;20438;-42
2021/03/30 06:44:29;;;;;;;4.90;4.33;;;17.30;37.60;;;;;;5048171;28;20483;-42
2021/03/30 06:47:13;;;;;;;4.97;4.47;;;17.40;37.30;;;;;;5049865;28;20477;-41
2021/03/30 06:50:03;;;;;;;7.23;3.97;;;17.50;37.30;;;;;;5044658;28;20451;-41
2021/03/30 06:52:34;;;;;;;9.70;4.87;;;17.50;37.40;;;;;;5050445;28;20431;-41
2021/03/30 06:55:03;;;;;;;5.37;4.70;;;17.60;37.10;;;;;;5046812;28;20518;-41
2021/03/30 06:57:45;;;;;;;8.73;4.73;;;17.60;37.20;;;;;;5050250;28;20439;-41
2021/03/30 07:00:14;;;;;;;12.03;5.20;;;17.50;37.60;;;;;;5042203;28;20501;-42
2021/03/30 07:02:47;;;;;;;6.33;4.30;;;17.70;37.40;;;;;;5040173;28;20447;-41
2021/03/30 07:05:25;;;;;;;7.43;4.20;;;17.80;37.10;;;;;;5049981;28;20525;-42
2021/03/30 07:07:56;;;;;;;6.47;4.40;;;17.90;37.00;;;;;;5041557;28;20524;-42
2021/03/30 07:10:23;;;;;;;6.20;4.67;;;18.00;36.80;;;;;;5052841;28;20431;-42
2021/03/30 07:12:50;;;;;;;4.57;4.17;;;17.90;37.00;;;;;;5047953;28;20481;-42
2021/03/30 07:15:26;;;;;;;4.83;4.33;;;17.70;37.30;;;;;;5053710;28;20435;-41
2021/03/30 07:18:05;;;;;;;6.73;4.30;;;17.60;37.40;;;;;;5050565;28;20431;-42
2021/03/30 07:20:53;;;;;;;5.07;4.53;;;17.30;38.10;;;;;;5039847;28;20814;-41
2021/03/30 07:23:27;;;;;;;5.37;4.13;;;17.60;38.00;;;;;;5036931;28;21248;-43
2021/03/30 07:26:12;;;;;;;6.87;4.30;;;18.00;37.30;;;;;;5046314;28;20824;-41
2021/03/30 07:29:03;;;;;;;5.93;4.50;;;18.10;37.00;;;;;;5044551;28;20867;-43
2021/03/30 07:31:32;;;;;;;4.53;4.10;;;18.60;36.70;;;;;;5047660;28;20856;-41
2021/03/30 07:34:11;;;;;;;6.60;4.43;;;18.90;36.20;;;;;;5039178;28;20840;-41
2021/03/30 07:36:51;;;;;;;8.20;4.13;;;18.80;35.90;;;;;;5045002;28;21298;-44
2021/03/30 07:39:18;;;;;;;7.73;3.97;;;19.00;35.80;;;;;;5046790;28;20448;-41
2021/03/30 07:41:45;;;;;;;6.23;5.03;;;18.90;36.20;;;;;;5037079;28;20798;-43
2021/03/30 07:44:12;;;;;;;5.63;4.20;;;19.20;35.50;;;;;;5047055;28;20504;-42
2021/03/30 07:46:38;;;;;;;5.43;4.37;;;19.00;35.60;;;;;;5038014;28;20439;-42
2021/03/30 07:49:05;;;;;;;6.57;4.00;;;19.30;35.70;;;;;;5040331;28;20462;-41
2021/03/30 07:51:42;;;;;;;6.03;4.43;;;19.40;35.40;;;;;;5043490;28;20431;-42
2021/03/30 07:54:10;;;;;;;4.00;3.70;;;19.70;35.00;;;;;;5041232;28;20451;-41
2021/03/30 07:56:39;;;;;;;5.13;4.13;;;19.90;34.50;;;;;;5045749;28;20447;-42
2021/03/30 07:59:06;;;;;;;4.77;4.30;;;20.10;34.20;;;;;;5049788;28;20435;-41
2021/03/30 08:01:33;;;;;;;6.00;5.37;;;20.00;33.80;;;;;;5049511;28;20834;-41
2021/03/30 08:04:01;;;;;;;6.17;4.10;;;19.60;35.10;;;;;;5047862;28;20855;-42
2021/03/30 08:06:32;;;;;;;5.43;4.10;;;19.60;35.40;;;;;;5048397;28;20441;-42
2021/03/30 08:09:06;;;;;;;5.93;4.40;;;20.00;35.30;;;;;;5050988;28;20471;-42
2021/03/30 08:11:58;;;;;;;6.53;4.60;;;20.10;34.10;;;;;;5049997;28;20548;-42
2021/03/30 08:14:28;;;;;;;8.03;4.57;;;20.40;34.40;;;;;;5051465;28;20435;-42
2021/03/30 08:16:56;;;;;;;4.40;4.00;;;20.80;34.50;;;;;;5040186;28;20546;-42
2021/03/30 08:19:26;;;;;;;8.90;5.10;;;20.90;33.70;;;;;;5039043;28;20474;-42
2021/03/30 08:22:00;;;;;;;6.57;4.27;;;21.10;33.60;;;;;;5038652;28;20521;-43
2021/03/30 08:24:43;;;;;;;5.10;4.47;;;21.30;33.50;;;;;;5044378;28;20509;-42
2021/03/30 08:27:31;;;;;;;7.20;4.40;;;21.20;33.60;;;;;;5050576;28;20431;-43
2021/03/30 08:29:57;;;;;;;5.90;5.07;;;21.40;33.90;;;;;;5050572;28;20423;-42
2021/03/30 08:32:23;;;;;;;5.73;3.83;;;21.50;33.30;;;;;;5052564;28;20430;-43
2021/03/30 08:34:48;;;;;;;5.93;3.70;;;21.70;33.40;;;;;;5050446;28;20450;-43
2021/03/30 08:37:15;;;;;;;9.40;5.00;;;21.90;32.60;;;;;;5052059;28;20730;-42
2021/03/30 08:39:42;;;;;;;6.17;4.20;;;22.00;32.60;;;;;;5046360;28;20273;-41
2021/03/30 08:42:20;;;;;;;6.33;4.30;;;22.20;32.70;;;;;;5051690;28;20442;-42
2021/03/30 08:44:56;;;;;;;8.60;4.63;;;22.30;32.40;;;;;;5038834;28;20524;-42
2021/03/30 08:47:42;;;;;;;10.53;6.33;;;22.50;32.00;;;;;;5048160;28;20446;-43
2021/03/30 08:50:27;;;;;;;7.93;4.60;;;22.50;32.30;;;;;;5045565;28;20545;-42
2021/03/30 08:52:57;;;;;;;10.53;4.80;;;22.70;32.50;;;;;;5038660;28;21009;-44
2021/03/30 08:55:27;;;;;;;4.47;3.90;;;22.70;30.80;;;;;;5036162;28;20451;-42
2021/03/30 08:57:54;;;;;;;3.97;3.60;;;22.90;30.00;;;;;;5039338;28;20444;-42
2021/03/30 09:00:21;;;;;;;5.33;4.00;;;22.90;30.20;;;;;;5044619;28;20927;-42
2021/03/30 09:03:01;;;;;;;7.13;3.50;;;23.10;30.00;;;;;;5046226;28;20427;-42
2021/03/30 09:05:27;;;;;;;4.33;3.93;;;23.20;29.30;;;;;;5043039;28;20455;-42
2021/03/30 09:07:52;;;;;;;5.73;4.37;;;23.30;29.20;;;;;;5038643;28;21037;-42
2021/03/30 09:10:20;;;;;;;4.40;4.00;;;23.50;28.90;;;;;;5041754;28;20189;-42
2021/03/30 09:12:46;;;;;;;5.53;3.90;;;23.60;28.90;;;;;;5038019;28;20574;-42
2021/03/30 09:15:14;;;;;;;6.50;5.30;;;23.60;29.00;;;;;;5037213;28;20432;-42
2021/03/30 09:17:59;;;;;;;9.00;4.33;;;23.70;28.70;;;;;;5038386;28;20454;-43
2021/03/30 09:20:26;;;;;;;7.97;4.03;;;23.80;28.90;;;;;;5038102;28;20462;-42
2021/03/30 09:22:54;;;;;;;7.20;4.53;;;23.70;29.00;;;;;;5040524;28;20433;-45
2021/03/30 09:27:49;;;;;;;7.50;4.67;;;23.90;29.30;;;;;;5047213;28;20443;-42
2021/03/30 09:30:18;;;;;;;5.00;4.50;;;24.10;28.80;;;;;;5040276;28;20442;-45
2021/03/30 09:32:46;;;;;;;7.27;5.10;;;24.30;28.90;;;;;;5045360;28;20193;-43
2021/03/30 09:35:20;;;;;;;6.70;4.70;;;24.40;28.50;;;;;;5044316;28;20946;-42
2021/03/30 09:37:57;;;;;;;5.47;4.30;;;24.00;28.60;;;;;;5048011;28;20479;-43
2021/03/30 09:40:31;;;;;;;7.13;4.63;;;24.10;29.70;;;;;;5033263;28;20447;-42
2021/03/30 09:42:58;;;;;;;6.77;4.67;;;24.50;29.00;;;;;;5038770;28;20970;-42
2021/03/30 09:45:32;;;;;;;6.97;5.10;;;24.80;28.70;;;;;;5038157;28;20491;-42
2021/03/30 09:47:59;;;;;;;6.40;4.50;;;24.60;29.20;;;;;;5045678;28;20524;-42
2021/03/30 09:50:26;;;;;;;6.13;5.17;;;24.90;29.00;;;;;;5035300;28;20565;-43
2021/03/30 09:52:52;;;;;;;6.20;5.27;;;25.30;28.70;;;;;;5047502;28;20478;-43
2021/03/30 09:55:31;;;;;;;7.20;5.27;;;25.60;28.70;;;;;;5036949;28;20444;-45
2021/03/30 09:58:10;;;;;;;10.37;4.93;;;25.90;28.20;;;;;;5038590;28;20431;-43
2021/03/30 10:00:51;;;;;;;8.80;6.00;;;25.90;28.30;;;;;;5044166;28;20452;-42
2021/03/30 10:03:18;;;;;;;11.73;5.20;;;26.10;27.90;;;;;;5043608;28;20805;-43
2021/03/30 10:05:44;;;;;;;8.07;5.67;;;26.20;27.50;;;;;;5036300;28;20432;-42
2021/03/30 10:08:30;;;;;;;7.17;5.30;;;26.30;27.00;;;;;;5033014;28;20505;-44
2021/03/30 10:10:58;;;;;;;9.37;6.10;;;26.50;27.00;;;;;;5045879;28;20458;-43
2021/03/30 10:13:31;;;;;;;8.60;5.23;;;26.70;27.10;;;;;;5040582;28;20435;-42
2021/03/30 10:15:59;;;;;;;7.17;5.30;;;26.90;26.60;;;;;;5046110;28;20440;-43
2021/03/30 10:18:28;;;;;;;8.17;5.00;;;27.20;26.90;;;;;;5044524;28;20442;-42
2021/03/30 10:21:15;;;;;;;9.30;5.00;;;27.40;26.80;;;;;;5038186;28;20439;-43
2021/03/30 10:23:47;;;;;;;6.93;5.80;;;27.60;27.20;;;;;;5040931;28;20566;-43
2021/03/30 10:26:25;;;;;;;5.43;4.90;;;27.70;26.30;;;;;;5042148;28;20529;-44
2021/03/30 10:28:57;;;;;;;9.37;5.73;;;27.90;26.40;;;;;;5043024;28;20515;-43
2021/03/30 10:31:39;;;;;;;5.93;5.43;;;28.10;27.20;;;;;;5040594;28;20546;-45
2021/03/30 10:34:34;;;;;;;4.47;3.67;;;28.30;26.40;;;;;;5046108;28;20795;-46
2021/03/30 10:37:03;;;;;;;5.27;4.43;;;28.40;26.20;;;;;;5027771;28;20916;-43
2021/03/30 10:39:41;;;;;;;4.83;3.57;;;28.70;25.00;;;;;;5042263;28;20510;-44
2021/03/30 10:42:18;;;;;;;4.30;3.90;;;28.90;25.20;;;;;;5039976;28;20467;-42
2021/03/30 10:44:45;;;;;;;4.13;3.70;;;29.20;24.90;;;;;;5048103;28;20911;-44
2021/03/30 10:47:24;;;;;;;3.57;3.00;;;29.30;25.10;;;;;;5051006;28;20438;-46
2021/03/30 10:49:53;;;;;;;4.50;4.10;;;29.50;24.60;;;;;;5038599;28;20440;-45
2021/03/30 10:52:24;;;;;;;5.20;4.50;;;29.60;23.90;;;;;;5039870;28;20447;-45
2021/03/30 10:54:52;;;;;;;4.67;4.23;;;29.80;23.30;;;;;;5042966;28;20930;-42
2021/03/30 10:57:19;;;;;;;8.63;3.60;;;29.90;23.80;;;;;;5047810;28;20791;-42
2021/03/30 10:59:45;;;;;;;4.77;3.33;;;30.00;23.80;;;;;;5044947;28;20436;-44
2021/03/30 11:02:12;;;;;;;3.67;3.30;;;30.10;23.80;;;;;;5048040;28;20439;-45
2021/03/30 11:04:39;;;;;;;4.00;3.50;;;30.30;23.70;;;;;;5043288;28;20255;-43
2021/03/30 11:07:05;;;;;;;6.70;3.50;;;30.50;23.50;;;;;;5048916;28;20442;-45
2021/03/30 11:09:31;;;;;;;4.73;2.80;;;30.70;23.60;;;;;;5049826;28;20443;-43
2021/03/30 11:11:57;;;;;;;3.53;3.23;;;30.80;23.40;;;;;;5047252;28;20513;-46
2021/03/30 11:14:23;;;;;;;6.70;4.20;;;30.90;23.60;;;;;;5038538;28;20436;-45
2021/03/30 11:16:49;;;;;;;4.07;3.77;;;31.00;23.10;;;;;;5048748;28;20197;-43
2021/03/30 11:19:16;;;;;;;3.80;3.20;;;31.00;23.10;;;;;;5053632;28;20216;-44
2021/03/30 11:21:42;;;;;;;3.77;3.40;;;31.00;22.70;;;;;;5049946;28;20442;-43
2021/03/30 11:24:11;;;;;;;3.00;2.60;;;31.10;22.70;;;;;;5048684;28;20854;-43
2021/03/30 11:26:38;;;;;;;5.20;3.10;;;31.20;22.70;;;;;;5041769;28;20269;-43
2021/03/30 11:29:04;;;;;;;4.30;3.30;;;31.30;22.20;;;;;;5049960;28;20484;-43
2021/03/30 11:34:04;;;;;;;4.13;3.73;;;31.50;21.60;;;;;;5046922;28;20196;-43
2021/03/30 11:36:37;;;;;;;3.27;3.00;;;31.50;21.90;;;;;;5045513;28;20196;-47
2021/03/30 11:39:03;;;;;;;4.23;3.37;;;31.50;19.60;;;;;;5045967;28;20443;-44
2021/03/30 11:41:29;;;;;;;4.00;3.60;;;31.70;20.70;;;;;;5052119;28;20493;-45
2021/03/30 11:43:54;;;;;;;4.87;3.47;;;31.80;19.70;;;;;;5046774;28;20221;-42
2021/03/30 11:46:20;;;;;;;4.27;3.33;;;32.00;19.30;;;;;;5046085;28;20284;-43
2021/03/30 11:48:45;;;;;;;4.10;3.07;;;31.80;19.50;;;;;;5047682;28;20204;-43
2021/03/30 11:51:11;;;;;;;6.67;3.80;;;31.50;18.90;;;;;;5047131;28;20262;-44
2021/03/30 11:53:36;;;;;;;4.77;3.73;;;31.60;19.10;;;;;;5043897;28;20200;-43
2021/03/30 11:56:02;;;;;;;3.33;3.13;;;31.60;18.70;;;;;;5045849;28;20208;-43
2021/03/30 11:58:29;;;;;;;4.90;3.50;;;31.20;18.00;;;;;;5042831;28;20306;-45
2021/03/30 12:00:54;;;;;;;3.70;3.20;;;31.20;18.10;;;;;;5042012;28;20205;-44
2021/03/30 12:03:20;;;;;;;6.83;3.60;;;31.30;18.50;;;;;;5049519;28;21012;-44
2021/03/30 12:05:46;;;;;;;4.30;2.53;;;31.60;18.40;;;;;;5044146;28;20778;-43
2021/03/30 12:08:11;;;;;;;3.30;2.97;;;31.70;19.00;;;;;;5040196;28;20237;-44
2021/03/30 12:10:37;;;;;;;3.37;3.07;;;31.80;18.60;;;;;;5043340;28;20267;-43
2021/03/30 12:13:03;;;;;;;4.00;2.70;;;32.00;18.80;;;;;;5039829;28;20192;-42
2021/03/30 12:15:28;;;;;;;3.20;3.00;;;32.10;18.80;;;;;;5047199;28;20254;-42
2021/03/30 12:17:54;;;;;;;3.90;3.23;;;32.30;18.70;;;;;;5042010;28;20199;-44
2021/03/30 12:20:19;;;;;;;3.80;3.50;;;32.50;18.80;;;;;;5039438;28;20648;-44
2021/03/30 12:22:45;;;;;;;5.53;3.10;;;32.80;18.30;;;;;;5034879;28;20198;-43
2021/03/30 12:25:11;;;;;;;5.77;3.93;;;32.90;17.40;;;;;;5045728;28;20366;-43
2021/03/30 12:27:37;;;;;;;3.90;3.57;;;32.80;16.90;;;;;;5043386;28;20185;-45
2021/03/30 12:30:04;;;;;;;4.10;3.73;;;32.60;16.80;;;;;;5048873;28;20427;-44
2021/03/30 12:32:30;;;;;;;4.90;3.40;;;32.80;17.40;;;;;;5052097;28;20267;-45
2021/03/30 12:34:56;;;;;;;3.50;3.20;;;32.90;17.80;;;;;;5043387;28;20905;-44
2021/03/30 12:37:21;;;;;;;3.30;3.00;;;32.80;17.20;;;;;;5042345;28;20706;-43
2021/03/30 12:39:47;;;;;;;3.50;3.20;;;32.90;16.20;;;;;;5040097;28;20236;-46
2021/03/30 12:42:13;;;;;;;3.70;3.00;;;33.00;16.70;;;;;;5037751;28;20288;-43
2021/03/30 12:44:38;;;;;;;4.33;2.83;;;33.10;16.50;;;;;;5047617;28;20239;-43
2021/03/30 12:47:04;;;;;;;4.27;3.20;;;33.00;16.80;;;;;;5046362;28;20645;-47
2021/03/30 12:49:30;;;;;;;5.23;3.23;;;33.10;16.60;;;;;;5045952;28;20200;-44
2021/03/30 12:51:56;;;;;;;3.53;3.23;;;33.00;17.00;;;;;;5045105;28;20435;-44
2021/03/30 12:54:22;;;;;;;4.40;3.40;;;32.60;17.00;;;;;;5044465;28;20276;-43
2021/03/30 12:56:48;;;;;;;3.13;2.83;;;32.60;17.40;;;;;;5040692;28;20250;-46
2021/03/30 12:59:14;;;;;;;5.40;2.93;;;32.80;18.70;;;;;;5043592;28;20443;-43
2021/03/30 13:01:40;;;;;;;3.70;3.03;;;33.00;19.10;;;;;;5041302;28;20193;-45
2021/03/30 13:04:06;;;;;;;4.10;2.90;;;33.10;18.80;;;;;;5048273;28;21367;-47
2021/03/30 13:06:32;;;;;;;4.43;3.07;;;33.20;18.40;;;;;;5031610;28;20194;-43
2021/03/30 13:08:58;;;;;;;3.67;2.90;;;33.20;18.40;;;;;;5037482;28;20482;-47